KMHS/MHS METAR and TAF weather

Enter ICAO airport designator
Station Type Date Time Source
KMHS METAR 2021/05/13 05:56 UTC NOAA

KMHS 130556Z AUTO 00000KT 10SM CLR 13/03 A3011 RMK AO2 SLP186 60000 T01330033 10272 20133 51021 $


Station Type Date Time Source
KMHS Decoded METAR 2021/05/13 05:56 UTC NOAA

MOUNT SHASTA, CA, United States (KMHS) 41-19N 122-19W 1078M
May 13, 2021 - 01:56 AM EDT / 2021.05.13 0556 UTC
Wind: Calm:0
Visibility: 10 mile(s):0
Sky conditions: clear
Temperature: 55.9 F (13.3 C)
Dew Point: 37.9 F (3.3 C)
Relative Humidity: 50%
Pressure (altimeter): 30.11 in. Hg (1019 hPa)
Pressure tendency: 0.06 inches (2.1 hPa) higher than three hours ago
ob: KMHS 130556Z AUTO 00000KT 10SM CLR 13/03 A3011 RMK AO2 SLP186 60000 T01330033 10272 20133 51021
cycle: 6

Station Type Date Time Source
KMHS TAF UTC NOAA

Error!

Example: see airport list